createdAt,value
2023-01-05T00:01:06.816Z,0.40
2023-01-05T00:05:09.008Z,0.50
2023-01-05T00:09:16.924Z,0.50
2023-01-05T00:13:37.225Z,0.60
2023-01-05T00:17:57.547Z,0.60
2023-01-05T00:22:18.021Z,0.50
2023-01-05T00:26:19.821Z,0.70
2023-01-05T00:30:25.061Z,0.87
2023-01-05T00:34:26.845Z,0.83
2023-01-05T00:38:28.621Z,0.80
2023-01-05T00:42:30.456Z,0.70
2023-01-05T00:46:32.241Z,1.00
2023-01-05T00:50:34.109Z,0.80
2023-01-05T00:54:36.699Z,1.00
2023-01-05T00:58:38.482Z,0.97
2023-01-05T01:02:40.338Z,1.03
2023-01-05T01:06:42.691Z,1.00
2023-01-05T01:10:44.464Z,1.03
2023-01-05T01:14:49.733Z,1.00
2023-01-05T01:18:51.650Z,1.00
2023-01-05T01:22:53.407Z,1.20
2023-01-05T01:26:55.885Z,1.00
2023-01-05T01:30:59.064Z,0.90
2023-01-05T01:35:00.963Z,0.90
2023-01-05T01:39:02.788Z,0.83
2023-01-05T01:43:17.193Z,0.80
2023-01-05T01:47:32.257Z,1.03
2023-01-05T01:51:38.599Z,0.93
2023-01-05T01:55:42.165Z,1.00
2023-01-05T01:59:43.999Z,1.10
2023-01-05T02:03:46.400Z,1.00
2023-01-05T02:07:48.727Z,1.10
2023-01-05T02:12:23.083Z,1.07
2023-01-05T02:16:30.725Z,0.87
2023-01-05T02:20:55.383Z,0.87
2023-01-05T02:25:35.506Z,0.90
2023-01-05T02:30:15.581Z,0.80
2023-01-05T02:34:28.419Z,0.80
2023-01-05T02:38:52.082Z,0.87
2023-01-05T02:42:55.911Z,0.80
2023-01-05T02:47:28.287Z,0.80
2023-01-05T02:51:42.328Z,0.57
2023-01-05T02:55:50.333Z,0.67
2023-01-05T02:59:54.475Z,0.60
2023-01-05T03:04:01.595Z,0.60
2023-01-05T03:08:11.136Z,0.60
2023-01-05T03:12:48.084Z,0.60
2023-01-05T03:16:51.352Z,0.43
2023-01-05T03:20:55.120Z,0.57
2023-01-05T03:25:16.104Z,0.40
2023-01-05T03:29:37.177Z,0.50
2023-01-05T03:34:10.143Z,0.40
2023-01-05T03:38:38.839Z,0.50
2023-01-05T03:42:42.728Z,0.40
2023-01-05T03:46:45.101Z,0.40
2023-01-05T03:50:47.377Z,0.40
2023-01-05T03:54:51.126Z,0.30
2023-01-05T03:58:53.044Z,0.37
2023-01-05T04:02:55.237Z,0.30
2023-01-05T04:06:57.808Z,0.30
2023-01-05T04:11:18.529Z,0.40
2023-01-05T04:15:28.457Z,0.40
2023-01-05T04:19:30.873Z,0.20
2023-01-05T04:23:33.468Z,0.40
2023-01-05T04:27:35.390Z,0.30
2023-01-05T04:31:39.644Z,0.57
2023-01-05T04:35:42.508Z,0.40
2023-01-05T04:39:44.408Z,0.30
2023-01-05T04:43:47.604Z,0.40
2023-01-05T04:47:52.054Z,0.30
2023-01-05T04:51:56.310Z,0.40
2023-01-05T04:55:59.271Z,0.40
2023-01-05T05:00:06.453Z,0.40
2023-01-05T05:04:08.734Z,0.50
2023-01-05T05:08:11.006Z,0.57
2023-01-05T05:12:13.547Z,0.30
2023-01-05T05:16:15.463Z,0.30
2023-01-05T05:20:19.549Z,0.30
2023-01-05T05:24:21.535Z,0.30
2023-01-05T05:28:28.058Z,0.40
2023-01-05T05:32:30.684Z,0.40
2023-01-05T05:36:32.655Z,0.50
2023-01-05T05:40:34.416Z,0.30
2023-01-05T05:44:36.265Z,0.40
2023-01-05T05:48:37.989Z,0.40
2023-01-05T05:52:39.708Z,0.30
2023-01-05T05:56:41.483Z,0.38
2023-01-05T06:00:43.307Z,0.40
2023-01-05T06:04:45.587Z,0.40
2023-01-05T06:08:47.337Z,0.50
2023-01-05T06:12:49.125Z,0.50
2023-01-05T06:16:50.857Z,0.40
2023-01-05T06:20:57.854Z,0.40
2023-01-05T06:25:03.346Z,0.50
2023-01-05T06:29:05.138Z,0.50
2023-01-05T06:33:06.930Z,0.40
2023-01-05T06:37:08.666Z,1.50
2023-01-05T06:41:10.532Z,0.70
2023-01-05T06:45:14.566Z,0.50
2023-01-05T06:49:16.351Z,0.60
2023-01-05T06:53:18.295Z,0.60
2023-01-05T06:57:20.136Z,0.50
2023-01-05T07:01:21.971Z,0.57
2023-01-05T07:05:24.526Z,1.30
2023-01-05T07:09:26.500Z,0.70
2023-01-05T07:13:28.288Z,0.60
2023-01-05T07:17:30.101Z,0.63
2023-01-05T07:21:31.836Z,0.60
2023-01-05T07:25:33.690Z,0.80
2023-01-05T07:29:35.428Z,0.93
2023-01-05T07:33:40.058Z,0.87
2023-01-05T07:37:44.335Z,0.80
2023-01-05T07:41:46.261Z,0.90
2023-01-05T07:45:48.341Z,1.10
2023-01-05T07:49:50.140Z,1.20
2023-01-05T07:53:53.475Z,1.07
2023-01-05T07:57:55.295Z,1.20
2023-01-05T08:01:57.107Z,1.30
2023-01-05T08:06:03.130Z,1.70
2023-01-05T08:10:23.899Z,1.57
2023-01-05T08:14:25.794Z,1.73
2023-01-05T08:18:28.053Z,1.40
2023-01-05T08:22:29.921Z,1.50
2023-01-05T08:26:31.821Z,1.90
2023-01-05T08:30:33.664Z,1.70
2023-01-05T08:34:35.627Z,1.60
2023-01-05T08:38:37.776Z,1.50
2023-01-05T08:42:40.561Z,1.50
2023-01-05T08:46:42.424Z,1.33
2023-01-05T08:50:44.228Z,1.57
2023-01-05T08:54:46.023Z,1.13
2023-01-05T08:58:47.938Z,1.20
2023-01-05T09:02:50.044Z,1.40
2023-01-05T09:06:51.932Z,1.50
2023-01-05T09:10:53.764Z,1.50
2023-01-05T09:14:55.536Z,1.87
2023-01-05T09:18:58.404Z,1.23
2023-01-05T09:23:00.193Z,3.60
2023-01-05T09:27:03.693Z,1.40
2023-01-05T09:31:20.375Z,1.50
2023-01-05T09:35:22.225Z,1.50
2023-01-05T09:39:24.293Z,2.17
2023-01-05T09:43:38.830Z,1.37
2023-01-05T09:47:44.214Z,1.90
2023-01-05T09:51:46.152Z,1.37
2023-01-05T09:55:49.254Z,1.13
2023-01-05T10:00:00.745Z,1.40
2023-01-05T10:04:11.527Z,1.40
2023-01-05T10:08:36.285Z,1.73
2023-01-05T10:13:05.661Z,1.60
2023-01-05T10:17:40.484Z,1.50
2023-01-05T10:22:05.888Z,1.60
2023-01-05T10:27:25.053Z,1.63
2023-01-05T10:31:50.497Z,2.57
2023-01-05T10:36:28.021Z,2.20
2023-01-05T10:41:02.507Z,2.23
2023-01-05T10:45:05.047Z,3.10
2023-01-05T10:49:07.327Z,1.90
2023-01-05T10:53:18.403Z,3.30
2023-01-05T10:57:34.811Z,2.83
2023-01-05T11:01:43.458Z,4.23
2023-01-05T11:05:47.965Z,2.97
2023-01-05T11:09:50.251Z,2.43
2023-01-05T11:13:58.888Z,2.10
2023-01-05T11:18:01.823Z,2.43
2023-01-05T11:22:03.702Z,2.27
2023-01-05T11:26:44.699Z,2.33
2023-01-05T11:31:00.552Z,1.70
2023-01-05T11:35:02.561Z,2.40
2023-01-05T11:39:04.680Z,2.60
2023-01-05T11:43:12.361Z,2.13
2023-01-05T11:47:46.519Z,2.10
2023-01-05T11:51:48.381Z,3.03
2023-01-05T11:56:03.632Z,2.83
2023-01-05T12:00:06.064Z,6.63
2023-01-05T12:04:58.577Z,2.70
2023-01-05T12:09:00.340Z,7.60
2023-01-05T12:13:20.837Z,2.90
2023-01-05T12:17:33.819Z,2.53
2023-01-05T12:21:39.843Z,2.10
2023-01-05T12:25:53.935Z,2.43
2023-01-05T12:35:02.625Z,2.50
2023-01-05T12:39:25.737Z,2.73
2023-01-05T12:43:58.185Z,3.37
2023-01-05T12:48:13.873Z,3.57
2023-01-05T12:52:35.987Z,2.83
2023-01-05T12:56:46.897Z,2.23
2023-01-05T13:00:50.272Z,2.10
2023-01-05T13:05:21.588Z,2.33
2023-01-05T13:09:27.888Z,2.30
2023-01-05T13:13:36.341Z,2.27
2023-01-05T13:17:50.624Z,2.77
2023-01-05T13:21:54.760Z,2.87
2023-01-05T13:26:02.836Z,5.13
2023-01-05T13:30:06.094Z,3.50
2023-01-05T13:34:40.190Z,5.27
2023-01-05T13:39:04.038Z,2.50
2023-01-05T13:43:14.701Z,3.53
2023-01-05T13:47:23.791Z,3.40
2023-01-05T13:51:38.209Z,2.83
2023-01-05T13:55:50.451Z,2.67
2023-01-05T14:00:06.566Z,3.57
2023-01-05T14:04:18.592Z,2.30
2023-01-05T14:08:32.381Z,2.30
2023-01-05T14:12:49.594Z,2.50
2023-01-05T14:16:53.318Z,2.30
2023-01-05T14:20:57.172Z,2.97
2023-01-05T14:24:59.503Z,2.67
2023-01-05T14:29:01.292Z,7.03
2023-01-05T14:33:08.880Z,4.00
2023-01-05T14:37:24.965Z,3.00
2023-01-05T14:41:29.503Z,3.00
2023-01-05T14:45:37.356Z,3.10
2023-01-05T14:50:04.865Z,3.20
2023-01-05T14:54:06.717Z,2.70
2023-01-05T14:58:14.903Z,2.77
2023-01-05T15:02:26.538Z,3.33
2023-01-05T15:06:59.268Z,3.40
2023-01-05T15:11:38.620Z,2.93
2023-01-05T15:16:30.854Z,2.93
2023-01-05T15:21:10.745Z,2.70
2023-01-05T15:25:17.447Z,4.90
2023-01-05T15:29:58.011Z,3.47
2023-01-05T15:34:24.465Z,2.57
2023-01-05T15:38:28.724Z,2.70
2023-01-05T15:42:43.441Z,3.13
2023-01-05T15:46:46.263Z,3.03
2023-01-05T15:50:53.621Z,3.63
2023-01-05T15:55:01.236Z,3.57
2023-01-05T15:59:17.593Z,3.03
2023-01-05T16:03:31.562Z,3.10
2023-01-05T16:07:33.429Z,3.40
2023-01-05T16:11:40.997Z,3.00
2023-01-05T16:15:46.847Z,2.40
2023-01-05T16:19:55.525Z,3.10
2023-01-05T16:24:36.172Z,3.53
2023-01-05T16:28:40.631Z,2.60
2023-01-05T16:32:43.025Z,3.30
2023-01-05T16:37:00.233Z,3.00
2023-01-05T16:41:21.338Z,3.00
2023-01-05T16:45:25.611Z,2.83
2023-01-05T16:49:34.972Z,2.73
2023-01-05T16:53:42.897Z,2.77
2023-01-05T16:57:44.757Z,5.43
2023-01-05T17:01:46.597Z,2.77
2023-01-05T17:05:52.609Z,3.47
2023-01-05T17:09:54.604Z,2.60
2023-01-05T17:13:56.779Z,2.40
2023-01-05T17:17:59.104Z,3.63
2023-01-05T17:22:04.535Z,3.37
2023-01-05T17:26:09.350Z,3.20
2023-01-05T17:30:21.002Z,2.83
2023-01-05T17:34:23.754Z,2.33
2023-01-05T17:38:25.507Z,4.07
2023-01-05T17:42:42.312Z,12.27
2023-01-05T17:46:46.547Z,11.67
2023-01-05T17:50:49.899Z,9.43
2023-01-05T17:54:53.763Z,5.60
2023-01-05T17:58:55.667Z,5.03
2023-01-05T18:02:57.592Z,3.77
2023-01-05T18:07:00.931Z,2.57
2023-01-05T18:11:04.134Z,2.53
2023-01-05T18:15:06.767Z,3.20
2023-01-05T18:19:08.535Z,2.23
2023-01-05T18:23:10.741Z,2.63
2023-01-05T18:27:12.637Z,2.43
2023-01-05T18:31:16.123Z,2.60
2023-01-05T18:35:18.499Z,2.70
2023-01-05T18:39:20.314Z,2.73
2023-01-05T18:43:22.140Z,2.53
2023-01-05T18:47:24.116Z,2.87
2023-01-05T18:51:26.055Z,2.70
2023-01-05T18:55:27.948Z,2.57
2023-01-05T18:59:29.851Z,2.60
2023-01-05T19:03:31.598Z,2.13
2023-01-05T19:07:33.378Z,2.40
2023-01-05T19:11:36.217Z,3.20
2023-01-05T19:15:38.532Z,4.53
2023-01-05T19:19:41.032Z,3.20
2023-01-05T19:23:42.812Z,6.03
2023-01-05T19:27:47.859Z,3.03
2023-01-05T19:31:49.625Z,2.90
2023-01-05T19:35:51.417Z,2.53
2023-01-05T19:39:53.395Z,2.20
2023-01-05T19:43:56.492Z,2.23
2023-01-05T19:47:58.312Z,2.00
2023-01-05T19:52:00.113Z,2.30
2023-01-05T19:56:06.877Z,2.10
2023-01-05T20:00:09.263Z,2.77
2023-01-05T20:04:14.379Z,2.53
2023-01-05T20:08:16.179Z,2.43
2023-01-05T20:12:18.257Z,2.97
2023-01-05T20:16:20.283Z,2.40
2023-01-05T20:20:22.069Z,2.47
2023-01-05T20:24:25.947Z,3.00
2023-01-05T20:28:27.727Z,1.87
2023-01-05T20:32:29.619Z,1.97
2023-01-05T20:36:33.214Z,2.37
2023-01-05T20:40:35.118Z,1.90
2023-01-05T20:44:40.024Z,2.20
2023-01-05T20:48:42.538Z,3.17
2023-01-05T20:52:44.410Z,1.93
2023-01-05T20:56:46.565Z,2.03
2023-01-05T21:01:10.663Z,2.00
2023-01-05T21:05:11.721Z,2.03
2023-01-05T21:09:14.205Z,1.57
2023-01-05T21:13:30.644Z,1.93
2023-01-05T21:17:34.589Z,2.67
2023-01-05T21:21:37.406Z,6.30
2023-01-05T21:26:06.312Z,9.07
2023-01-05T21:30:10.043Z,7.77
2023-01-05T21:34:12.969Z,4.43
2023-01-05T21:38:14.945Z,4.27
2023-01-05T21:42:35.292Z,2.43
2023-01-05T21:46:38.534Z,3.80
2023-01-05T21:50:58.901Z,11.00
2023-01-05T21:55:19.334Z,13.33
2023-01-05T21:59:21.140Z,9.70
2023-01-05T22:03:22.937Z,6.00
2023-01-05T22:07:24.793Z,4.13
2023-01-05T22:11:26.570Z,3.40
2023-01-05T22:15:28.345Z,3.27
2023-01-05T22:19:30.204Z,3.77
2023-01-05T22:23:32.607Z,3.97
2023-01-05T22:27:34.425Z,3.47
2023-01-05T22:31:36.262Z,4.17
2023-01-05T22:35:40.164Z,16.87
2023-01-05T22:39:42.015Z,26.30
2023-01-05T22:43:44.006Z,13.63
2023-01-05T22:47:45.808Z,25.57
2023-01-05T22:51:47.612Z,15.10
2023-01-05T22:55:49.346Z,18.20
2023-01-05T22:59:51.181Z,16.97
2023-01-05T23:03:54.864Z,25.70
2023-01-05T23:07:56.750Z,12.80
2023-01-05T23:11:58.565Z,7.17
2023-01-05T23:16:00.339Z,10.87
2023-01-05T23:20:02.191Z,11.50
2023-01-05T23:24:04.788Z,10.30
2023-01-05T23:28:06.696Z,9.43
2023-01-05T23:32:08.591Z,11.97
2023-01-05T23:36:11.577Z,17.23
2023-01-05T23:40:13.415Z,25.50
2023-01-05T23:44:15.320Z,23.50
2023-01-05T23:48:18.251Z,21.60
2023-01-05T23:52:20.019Z,13.13
2023-01-05T23:56:23.130Z,6.50
